sensor_id;sensor_type;location;lat;lon;timestamp;pressure;altitude;pressure_sealevel;temperature;humidity
54592;BME280;40488;48.558;18.150;2022-12-07T00:01:46;99382.41;;;4.14;88.14
54592;BME280;40488;48.558;18.150;2022-12-07T00:04:16;99391.66;;;4.14;88.56
54592;BME280;40488;48.558;18.150;2022-12-07T00:06:50;99366.31;;;4.09;87.90
54592;BME280;40488;48.558;18.150;2022-12-07T00:09:19;99384.09;;;4.15;88.38
54592;BME280;40488;48.558;18.150;2022-12-07T00:11:50;99381.56;;;4.14;88.23
54592;BME280;40488;48.558;18.150;2022-12-07T00:14:21;99375.63;;;4.13;87.82
54592;BME280;40488;48.558;18.150;2022-12-07T00:16:51;99376.50;;;4.14;88.03
54592;BME280;40488;48.558;18.150;2022-12-07T00:19:20;99380.66;;;4.10;87.87
54592;BME280;40488;48.558;18.150;2022-12-07T00:21:49;99383.31;;;4.18;88.28
54592;BME280;40488;48.558;18.150;2022-12-07T00:24:18;99378.22;;;4.15;87.89
54592;BME280;40488;48.558;18.150;2022-12-07T00:26:46;99371.38;;;4.11;87.87
54592;BME280;40488;48.558;18.150;2022-12-07T00:29:17;99375.59;;;4.10;87.72
54592;BME280;40488;48.558;18.150;2022-12-07T00:31:48;99366.34;;;4.11;87.87
54592;BME280;40488;48.558;18.150;2022-12-07T00:34:18;99362.94;;;4.08;87.71
54592;BME280;40488;48.558;18.150;2022-12-07T00:36:48;99345.84;;;3.95;87.69
54592;BME280;40488;48.558;18.150;2022-12-07T00:39:17;99356.06;;;4.01;87.57
54592;BME280;40488;48.558;18.150;2022-12-07T00:41:45;99354.22;;;3.94;87.53
54592;BME280;40488;48.558;18.150;2022-12-07T00:44:15;99357.69;;;3.99;88.29
54592;BME280;40488;48.558;18.150;2022-12-07T00:46:43;99333.78;;;3.82;87.64
54592;BME280;40488;48.558;18.150;2022-12-07T00:49:14;99370.41;;;4.04;88.08
54592;BME280;40488;48.558;18.150;2022-12-07T00:51:43;99366.16;;;4.01;88.45
54592;BME280;40488;48.558;18.150;2022-12-07T00:54:11;99365.22;;;3.96;87.79
54592;BME280;40488;48.558;18.150;2022-12-07T00:56:40;99354.16;;;3.91;88.37
54592;BME280;40488;48.558;18.150;2022-12-07T00:59:12;99351.63;;;3.91;88.11
54592;BME280;40488;48.558;18.150;2022-12-07T01:01:43;99338.03;;;3.83;87.99
54592;BME280;40488;48.558;18.150;2022-12-07T01:04:12;99350.91;;;3.97;88.25
54592;BME280;40488;48.558;18.150;2022-12-07T01:06:42;99350.91;;;3.95;88.55
54592;BME280;40488;48.558;18.150;2022-12-07T01:09:11;99347.44;;;3.90;88.60
54592;BME280;40488;48.558;18.150;2022-12-07T01:11:40;99317.50;;;3.67;88.10
54592;BME280;40488;48.558;18.150;2022-12-07T01:14:09;99345.59;;;3.83;88.45
54592;BME280;40488;48.558;18.150;2022-12-07T01:16:38;99353.19;;;3.83;88.67
54592;BME280;40488;48.558;18.150;2022-12-07T01:19:07;99359.97;;;3.87;88.69
54592;BME280;40488;48.558;18.150;2022-12-07T01:21:38;99355.75;;;3.86;88.67
54592;BME280;40488;48.558;18.150;2022-12-07T01:24:10;99364.22;;;3.88;88.40
54592;BME280;40488;48.558;18.150;2022-12-07T01:26:39;99359.97;;;3.86;88.49
54592;BME280;40488;48.558;18.150;2022-12-07T01:29:08;99353.97;;;3.82;88.48
54592;BME280;40488;48.558;18.150;2022-12-07T01:31:37;99337.00;;;3.75;88.30
54592;BME280;40488;48.558;18.150;2022-12-07T01:34:05;99337.00;;;3.74;88.60
54592;BME280;40488;48.558;18.150;2022-12-07T01:36:37;99336.94;;;3.72;89.06
54592;BME280;40488;48.558;18.150;2022-12-07T01:39:10;99336.91;;;3.69;88.56
54592;BME280;40488;48.558;18.150;2022-12-07T01:41:40;99343.81;;;3.79;88.97
54592;BME280;40488;48.558;18.150;2022-12-07T01:44:15;99313.16;;;3.61;88.83
54592;BME280;40488;48.558;18.150;2022-12-07T01:46:45;99341.34;;;3.81;88.62
54592;BME280;40488;48.558;18.150;2022-12-07T01:52:08;99343.00;;;3.80;89.13
54592;BME280;40488;48.558;18.150;2022-12-07T01:54:41;99344.72;;;3.81;89.06
54592;BME280;40488;48.558;18.150;2022-12-07T01:57:11;99346.41;;;3.82;89.20
54592;BME280;40488;48.558;18.150;2022-12-07T01:59:41;99344.81;;;3.86;88.52
54592;BME280;40488;48.558;18.150;2022-12-07T02:02:17;99347.34;;;3.87;88.69
54592;BME280;40488;48.558;18.150;2022-12-07T02:04:46;99332.22;;;3.87;89.13
54592;BME280;40488;48.558;18.150;2022-12-07T02:07:15;99324.56;;;3.83;88.69
54592;BME280;40488;48.558;18.150;2022-12-07T02:09:46;99334.75;;;3.87;88.50
54592;BME280;40488;48.558;18.150;2022-12-07T02:12:14;99330.50;;;3.86;88.60
54592;BME280;40488;48.558;18.150;2022-12-07T02:14:43;99282.81;;;3.58;88.77
54592;BME280;40488;48.558;18.150;2022-12-07T02:17:15;99323.69;;;3.82;88.79
54592;BME280;40488;48.558;18.150;2022-12-07T02:20:07;99328.75;;;3.82;88.69
54592;BME280;40488;48.558;18.150;2022-12-07T02:23:02;99332.16;;;3.84;89.21
54592;BME280;40488;48.558;18.150;2022-12-07T02:25:54;99329.59;;;3.83;89.07
54592;BME280;40488;48.558;18.150;2022-12-07T02:28:31;99326.19;;;3.81;88.72
54592;BME280;40488;48.558;18.150;2022-12-07T02:31:08;99322.81;;;3.80;88.84
54592;BME280;40488;48.558;18.150;2022-12-07T02:33:43;99322.91;;;3.85;89.52
54592;BME280;40488;48.558;18.150;2022-12-07T02:36:18;99322.06;;;3.84;89.50
54592;BME280;40488;48.558;18.150;2022-12-07T02:38:54;99319.50;;;3.83;89.20
54592;BME280;40488;48.558;18.150;2022-12-07T02:41:29;99320.38;;;3.83;89.23
54592;BME280;40488;48.558;18.150;2022-12-07T02:44:02;99310.19;;;3.80;89.34
54592;BME280;40488;48.558;18.150;2022-12-07T02:46:38;99323.88;;;3.91;89.06
54592;BME280;40488;48.558;18.150;2022-12-07T02:49:10;99328.03;;;3.88;89.77
54592;BME280;40488;48.558;18.150;2022-12-07T02:51:40;99316.13;;;3.82;89.43
54592;BME280;40488;48.558;18.150;2022-12-07T02:54:12;99320.41;;;3.86;89.68
54592;BME280;40488;48.558;18.150;2022-12-07T02:56:46;99319.63;;;3.89;89.62
54592;BME280;40488;48.558;18.150;2022-12-07T02:59:25;99312.94;;;3.91;89.57
54592;BME280;40488;48.558;18.150;2022-12-07T03:02:08;99312.97;;;3.92;89.56
54592;BME280;40488;48.558;18.150;2022-12-07T03:04:46;99312.94;;;3.91;89.68
54592;BME280;40488;48.558;18.150;2022-12-07T03:07:36;99314.63;;;3.90;89.92
54592;BME280;40488;48.558;18.150;2022-12-07T03:10:14;99317.16;;;3.92;89.80
54592;BME280;40488;48.558;18.150;2022-12-07T03:12:52;99313.78;;;3.91;89.76
54592;BME280;40488;48.558;18.150;2022-12-07T03:15:29;99314.63;;;3.92;89.85
54592;BME280;40488;48.558;18.150;2022-12-07T03:18:02;99318.81;;;3.91;89.70
54592;BME280;40488;48.558;18.150;2022-12-07T03:20:34;99309.59;;;3.92;90.30
54592;BME280;40488;48.558;18.150;2022-12-07T03:23:06;99315.50;;;3.92;90.03
54592;BME280;40488;48.558;18.150;2022-12-07T03:25:40;99293.41;;;3.82;89.90
54592;BME280;40488;48.558;18.150;2022-12-07T03:28:14;99318.03;;;3.94;90.25
54592;BME280;40488;48.558;18.150;2022-12-07T03:30:47;99313.84;;;3.94;90.34
54592;BME280;40488;48.558;18.150;2022-12-07T03:33:24;99314.69;;;3.93;90.09
54592;BME280;40488;48.558;18.150;2022-12-07T03:36:00;99307.91;;;3.91;90.26
54592;BME280;40488;48.558;18.150;2022-12-07T03:38:36;99317.22;;;3.93;90.17
54592;BME280;40488;48.558;18.150;2022-12-07T03:41:09;99310.53;;;3.97;90.30
54592;BME280;40488;48.558;18.150;2022-12-07T03:43:40;99312.25;;;3.99;90.12
54592;BME280;40488;48.558;18.150;2022-12-07T03:46:17;99310.63;;;4.01;90.60
54592;BME280;40488;48.558;18.150;2022-12-07T03:48:56;99309.81;;;4.04;90.66
54592;BME280;40488;48.558;18.150;2022-12-07T03:51:34;99319.94;;;4.05;90.08
54592;BME280;40488;48.558;18.150;2022-12-07T03:54:10;99307.38;;;4.08;90.25
54592;BME280;40488;48.558;18.150;2022-12-07T03:56:43;99297.13;;;3.99;90.51
54592;BME280;40488;48.558;18.150;2022-12-07T03:59:14;99309.09;;;4.10;90.39
54592;BME280;40488;48.558;18.150;2022-12-07T04:01:45;99311.63;;;4.10;89.90
54592;BME280;40488;48.558;18.150;2022-12-07T04:04:21;99315.00;;;4.10;90.23
54592;BME280;40488;48.558;18.150;2022-12-07T04:06:50;99314.94;;;4.07;90.24
54592;BME280;40488;48.558;18.150;2022-12-07T04:09:19;99320.00;;;4.07;89.59
54592;BME280;40488;48.558;18.150;2022-12-07T04:11:48;99315.78;;;4.07;89.54
54592;BME280;40488;48.558;18.150;2022-12-07T04:14:17;99305.72;;;4.11;89.89
54592;BME280;40488;48.558;18.150;2022-12-07T04:16:51;99311.69;;;4.13;90.01
54592;BME280;40488;48.558;18.150;2022-12-07T04:19:24;99303.22;;;4.11;89.78
54592;BME280;40488;48.558;18.150;2022-12-07T04:21:54;99304.16;;;4.16;89.85
54592;BME280;40488;48.558;18.150;2022-12-07T04:24:23;99303.28;;;4.14;89.83
54592;BME280;40488;48.558;18.150;2022-12-07T04:26:53;99309.16;;;4.13;90.06
54592;BME280;40488;48.558;18.150;2022-12-07T04:29:22;99292.94;;;4.01;90.00
54592;BME280;40488;48.558;18.150;2022-12-07T04:31:51;99309.97;;;4.10;89.92
54592;BME280;40488;48.558;18.150;2022-12-07T04:34:22;99309.09;;;4.10;89.85
54592;BME280;40488;48.558;18.150;2022-12-07T04:36:51;99307.31;;;4.05;89.91
54592;BME280;40488;48.558;18.150;2022-12-07T04:39:20;99316.59;;;4.06;90.36
54592;BME280;40488;48.558;18.150;2022-12-07T04:41:50;99320.84;;;4.07;90.07
54592;BME280;40488;48.558;18.150;2022-12-07T04:44:20;99310.69;;;4.04;90.14
54592;BME280;40488;48.558;18.150;2022-12-07T04:46:49;99318.19;;;4.01;89.87
54592;BME280;40488;48.558;18.150;2022-12-07T04:49:19;99306.44;;;4.02;89.95
54592;BME280;40488;48.558;18.150;2022-12-07T04:51:49;99318.19;;;4.01;90.08
54592;BME280;40488;48.558;18.150;2022-12-07T04:54:18;99324.91;;;4.01;89.71
54592;BME280;40488;48.558;18.150;2022-12-07T04:56:47;99319.84;;;3.99;90.14
54592;BME280;40488;48.558;18.150;2022-12-07T04:59:16;99328.34;;;4.03;90.48
54592;BME280;40488;48.558;18.150;2022-12-07T05:01:45;99316.38;;;3.94;90.68
54592;BME280;40488;48.558;18.150;2022-12-07T05:04:14;99287.47;;;3.79;90.18
54592;BME280;40488;48.558;18.150;2022-12-07T05:06:43;99329.13;;;4.00;90.60
54592;BME280;40488;48.558;18.150;2022-12-07T05:09:13;99326.59;;;4.00;90.22
54592;BME280;40488;48.558;18.150;2022-12-07T05:11:42;99307.13;;;3.93;90.61
54592;BME280;40488;48.558;18.150;2022-12-07T05:14:13;99324.06;;;4.00;90.49
54592;BME280;40488;48.558;18.150;2022-12-07T05:16:44;99298.53;;;3.85;90.65
54592;BME280;40488;48.558;18.150;2022-12-07T05:19:13;99320.72;;;4.01;90.73
54592;BME280;40488;48.558;18.150;2022-12-07T05:21:43;99324.13;;;4.03;90.39
54592;BME280;40488;48.558;18.150;2022-12-07T05:24:15;99318.25;;;4.03;90.37
54592;BME280;40488;48.558;18.150;2022-12-07T05:26:44;99316.53;;;4.03;90.51
54592;BME280;40488;48.558;18.150;2022-12-07T05:29:15;99313.19;;;4.03;90.72
54592;BME280;40488;48.558;18.150;2022-12-07T05:31:45;99313.97;;;4.00;90.31
54592;BME280;40488;48.558;18.150;2022-12-07T05:34:14;99321.56;;;4.02;90.54
54592;BME280;40488;48.558;18.150;2022-12-07T05:36:44;99329.13;;;4.00;90.44
54592;BME280;40488;48.558;18.150;2022-12-07T05:39:14;99329.16;;;4.03;90.26
54592;BME280;40488;48.558;18.150;2022-12-07T05:41:42;99324.97;;;4.04;90.49
54592;BME280;40488;48.558;18.150;2022-12-07T05:44:21;99329.16;;;4.03;90.37
54592;BME280;40488;48.558;18.150;2022-12-07T05:46:50;99324.97;;;4.04;90.21
54592;BME280;40488;48.558;18.150;2022-12-07T05:49:18;99324.13;;;4.03;90.02
54592;BME280;40488;48.558;18.150;2022-12-07T05:51:47;99332.47;;;3.99;89.73
54592;BME280;40488;48.558;18.150;2022-12-07T05:54:18;99327.47;;;4.02;90.42
54592;BME280;40488;48.558;18.150;2022-12-07T05:56:46;99320.53;;;3.92;89.83
54592;BME280;40488;48.558;18.150;2022-12-07T05:59:15;99333.41;;;4.06;90.14
54592;BME280;40488;48.558;18.150;2022-12-07T06:01:56;99330.09;;;4.07;89.93
54592;BME280;40488;48.558;18.150;2022-12-07T06:04:28;99336.00;;;4.07;90.07
54592;BME280;40488;48.558;18.150;2022-12-07T06:06:57;99330.94;;;4.07;90.06
54592;BME280;40488;48.558;18.150;2022-12-07T06:09:29;99336.00;;;4.07;90.07
54592;BME280;40488;48.558;18.150;2022-12-07T06:11:58;99330.88;;;4.04;90.12
54592;BME280;40488;48.558;18.150;2022-12-07T06:14:36;99320.66;;;3.98;89.57
54592;BME280;40488;48.558;18.150;2022-12-07T06:17:05;99331.59;;;3.99;89.34
54592;BME280;40488;48.558;18.150;2022-12-07T06:19:34;99346.03;;;4.04;89.80
54592;BME280;40488;48.558;18.150;2022-12-07T06:22:03;99341.78;;;4.03;89.19
54592;BME280;40488;48.558;18.150;2022-12-07T06:24:33;99349.34;;;4.03;89.37
54592;BME280;40488;48.558;18.150;2022-12-07T06:27:02;99350.19;;;4.02;89.25
54592;BME280;40488;48.558;18.150;2022-12-07T06:29:31;99356.94;;;4.03;89.19
54592;BME280;40488;48.558;18.150;2022-12-07T06:32:00;99350.19;;;4.02;89.24
54592;BME280;40488;48.558;18.150;2022-12-07T06:34:29;99351.00;;;4.01;88.90
54592;BME280;40488;48.558;18.150;2022-12-07T06:36:58;99355.19;;;4.01;88.94
54592;BME280;40488;48.558;18.150;2022-12-07T06:39:27;99349.31;;;4.00;88.94
54592;BME280;40488;48.558;18.150;2022-12-07T06:41:58;99339.03;;;3.91;89.21
54592;BME280;40488;48.558;18.150;2022-12-07T06:44:27;99357.78;;;4.02;88.76
54592;BME280;40488;48.558;18.150;2022-12-07T06:46:56;99351.06;;;4.04;88.49
54592;BME280;40488;48.558;18.150;2022-12-07T06:49:44;99347.72;;;4.05;89.03
54592;BME280;40488;48.558;18.150;2022-12-07T06:52:13;99346.91;;;4.06;89.03
54592;BME280;40488;48.558;18.150;2022-12-07T06:54:43;99343.56;;;4.07;88.99
54592;BME280;40488;48.558;18.150;2022-12-07T06:57:13;99346.09;;;4.07;88.69
54592;BME280;40488;48.558;18.150;2022-12-07T06:59:42;99346.03;;;4.04;88.42
54592;BME280;40488;48.558;18.150;2022-12-07T07:02:11;99344.28;;;4.00;88.12
54592;BME280;40488;48.558;18.150;2022-12-07T07:04:40;99345.97;;;4.01;88.38
54592;BME280;40488;48.558;18.150;2022-12-07T07:07:09;99357.03;;;4.08;88.08
54592;BME280;40488;48.558;18.150;2022-12-07T07:09:37;99359.59;;;4.10;88.70
54592;BME280;40488;48.558;18.150;2022-12-07T07:12:06;99364.72;;;4.13;88.08
54592;BME280;40488;48.558;18.150;2022-12-07T07:14:36;99369.81;;;4.16;88.22
54592;BME280;40488;48.558;18.150;2022-12-07T07:17:05;99365.59;;;4.16;88.35
54592;BME280;40488;48.558;18.150;2022-12-07T07:19:34;99372.41;;;4.19;88.19
54592;BME280;40488;48.558;18.150;2022-12-07T07:22:04;99371.50;;;4.17;87.74
54592;BME280;40488;48.558;18.150;2022-12-07T07:24:32;99381.72;;;4.23;88.13
54592;BME280;40488;48.558;18.150;2022-12-07T07:27:01;99371.69;;;4.26;87.90
54592;BME280;40488;48.558;18.150;2022-12-07T07:29:30;99380.09;;;4.25;87.81
54592;BME280;40488;48.558;18.150;2022-12-07T07:32:01;99363.06;;;4.15;87.58
54592;BME280;40488;48.558;18.150;2022-12-07T07:34:33;99368.28;;;4.24;87.58
54592;BME280;40488;48.558;18.150;2022-12-07T07:37:02;99368.34;;;4.27;87.36
54592;BME280;40488;48.558;18.150;2022-12-07T07:39:31;99381.97;;;4.35;87.12
54592;BME280;40488;48.558;18.150;2022-12-07T07:41:59;99379.44;;;4.35;87.44
54592;BME280;40488;48.558;18.150;2022-12-07T07:44:28;99387.00;;;4.35;87.47
54592;BME280;40488;48.558;18.150;2022-12-07T07:47:03;99383.75;;;4.39;87.23
54592;BME280;40488;48.558;18.150;2022-12-07T07:49:32;99381.28;;;4.43;86.96
54592;BME280;40488;48.558;18.150;2022-12-07T07:52:00;99380.44;;;4.43;86.91
54592;BME280;40488;48.558;18.150;2022-12-07T07:54:29;99383.91;;;4.48;87.25
54592;BME280;40488;48.558;18.150;2022-12-07T07:56:57;99387.25;;;4.47;86.94
54592;BME280;40488;48.558;18.150;2022-12-07T07:59:26;99385.59;;;4.49;86.66
54592;BME280;40488;48.558;18.150;2022-12-07T08:01:54;99386.50;;;4.51;86.57
54592;BME280;40488;48.558;18.150;2022-12-07T08:04:25;99380.59;;;4.52;86.42
54592;BME280;40488;48.558;18.150;2022-12-07T08:06:54;99377.25;;;4.53;86.50
54592;BME280;40488;48.558;18.150;2022-12-07T08:09:22;99389.13;;;4.57;86.58
54592;BME280;40488;48.558;18.150;2022-12-07T08:11:51;99385.78;;;4.58;86.16
54592;BME280;40488;48.558;18.150;2022-12-07T08:14:20;99379.88;;;4.59;86.26
54592;BME280;40488;48.558;18.150;2022-12-07T08:16:49;99380.75;;;4.59;86.11
54592;BME280;40488;48.558;18.150;2022-12-07T08:19:17;99389.25;;;4.63;85.96
54592;BME280;40488;48.558;18.150;2022-12-07T08:21:47;99381.69;;;4.64;86.16
54592;BME280;40488;48.558;18.150;2022-12-07T08:24:16;99380.81;;;4.64;85.85
54592;BME280;40488;48.558;18.150;2022-12-07T08:26:44;99379.97;;;4.63;85.94
54592;BME280;40488;48.558;18.150;2022-12-07T08:29:14;99381.63;;;4.61;85.87
54592;BME280;40488;48.558;18.150;2022-12-07T08:31:43;99382.41;;;4.59;85.71
54592;BME280;40488;48.558;18.150;2022-12-07T08:34:12;99381.56;;;4.58;85.76
54592;BME280;40488;48.558;18.150;2022-12-07T08:36:41;99382.41;;;4.59;85.95
54592;BME280;40488;48.558;18.150;2022-12-07T08:39:11;99387.50;;;4.60;85.27
54592;BME280;40488;48.558;18.150;2022-12-07T08:41:58;99395.13;;;4.63;85.19
54592;BME280;40488;48.558;18.150;2022-12-07T08:44:27;99394.34;;;4.66;85.12
54592;BME280;40488;48.558;18.150;2022-12-07T08:46:58;99399.44;;;4.69;84.92
54592;BME280;40488;48.558;18.150;2022-12-07T08:49:33;99399.44;;;4.69;84.86
54592;BME280;40488;48.558;18.150;2022-12-07T08:52:05;99397.00;;;4.72;84.90
54592;BME280;40488;48.558;18.150;2022-12-07T08:54:36;99402.84;;;4.71;84.93
54592;BME280;40488;48.558;18.150;2022-12-07T08:57:07;99407.16;;;4.75;84.86
54592;BME280;40488;48.558;18.150;2022-12-07T08:59:37;99397.88;;;4.74;85.11
54592;BME280;40488;48.558;18.150;2022-12-07T09:02:07;99405.47;;;4.75;85.24
54592;BME280;40488;48.558;18.150;2022-12-07T09:04:35;99399.59;;;4.78;85.25
54592;BME280;40488;48.558;18.150;2022-12-07T09:07:05;99406.44;;;4.82;85.11
54592;BME280;40488;48.558;18.150;2022-12-07T09:09:35;99398.88;;;4.84;85.31
54592;BME280;40488;48.558;18.150;2022-12-07T09:12:04;99405.66;;;4.86;85.31
54592;BME280;40488;48.558;18.150;2022-12-07T09:14:33;99398.06;;;4.86;85.43
54592;BME280;40488;48.558;18.150;2022-12-07T09:17:06;99394.72;;;4.87;85.44
54592;BME280;40488;48.558;18.150;2022-12-07T09:19:35;99398.13;;;4.89;85.67
54592;BME280;40488;48.558;18.150;2022-12-07T09:22:04;99401.47;;;4.88;85.47
54592;BME280;40488;48.558;18.150;2022-12-07T09:24:35;99401.50;;;4.90;85.32
54592;BME280;40488;48.558;18.150;2022-12-07T09:27:03;99403.19;;;4.89;85.48
54592;BME280;40488;48.558;18.150;2022-12-07T09:29:32;99404.88;;;4.90;85.44
54592;BME280;40488;48.558;18.150;2022-12-07T09:32:01;99402.41;;;4.92;85.26
54592;BME280;40488;48.558;18.150;2022-12-07T09:34:37;99398.16;;;4.92;85.42
54592;BME280;40488;48.558;18.150;2022-12-07T09:37:06;99399.94;;;4.96;85.40
54592;BME280;40488;48.558;18.150;2022-12-07T09:39:39;99394.88;;;4.96;85.18
54592;BME280;40488;48.558;18.150;2022-12-07T09:42:27;99386.50;;;5.00;85.27
54592;BME280;40488;48.558;18.150;2022-12-07T09:44:58;99387.31;;;4.99;85.21
54592;BME280;40488;48.558;18.150;2022-12-07T09:47:27;99388.22;;;5.01;85.53
54592;BME280;40488;48.558;18.150;2022-12-07T09:50:03;99380.59;;;4.98;85.27
54592;BME280;40488;48.558;18.150;2022-12-07T09:52:34;99373.00;;;4.98;85.23
54592;BME280;40488;48.558;18.150;2022-12-07T09:55:12;99378.00;;;4.95;85.26
54592;BME280;40488;48.558;18.150;2022-12-07T09:57:42;99371.25;;;4.94;85.21
54592;BME280;40488;48.558;18.150;2022-12-07T10:00:14;99373.78;;;4.96;84.99
54592;BME280;40488;48.558;18.150;2022-12-07T10:02:46;99363.69;;;4.97;84.83
54592;BME280;40488;48.558;18.150;2022-12-07T10:05:19;99365.41;;;4.98;84.75
54592;BME280;40488;48.558;18.150;2022-12-07T10:07:51;99364.53;;;4.96;84.56
54592;BME280;40488;48.558;18.150;2022-12-07T10:10:24;99369.69;;;5.02;84.33
54592;BME280;40488;48.558;18.150;2022-12-07T10:12:59;99373.97;;;5.06;84.38
54592;BME280;40488;48.558;18.150;2022-12-07T10:15:44;99371.47;;;5.08;84.12
54592;BME280;40488;48.558;18.150;2022-12-07T10:18:34;99368.91;;;5.06;84.31
54592;BME280;40488;48.558;18.150;2022-12-07T10:21:14;99366.38;;;5.06;83.94
54592;BME280;40488;48.558;18.150;2022-12-07T10:23:59;99362.97;;;5.04;83.87
54592;BME280;40488;48.558;18.150;2022-12-07T10:26:35;99355.38;;;5.04;83.69
54592;BME280;40488;48.558;18.150;2022-12-07T10:29:15;99354.56;;;5.05;83.63
54592;BME280;40488;48.558;18.150;2022-12-07T10:31:45;99351.19;;;5.05;83.81
54592;BME280;40488;48.558;18.150;2022-12-07T10:34:22;99352.84;;;5.04;83.68
54592;BME280;40488;48.558;18.150;2022-12-07T10:36:53;99347.84;;;5.07;83.76
54592;BME280;40488;48.558;18.150;2022-12-07T10:39:22;99342.84;;;5.10;83.28
54592;BME280;40488;48.558;18.150;2022-12-07T10:41:57;99346.25;;;5.12;83.37
54592;BME280;40488;48.558;18.150;2022-12-07T10:44:28;99340.34;;;5.12;83.28
54592;BME280;40488;48.558;18.150;2022-12-07T10:47:15;99341.19;;;5.14;83.36
54592;BME280;40488;48.558;18.150;2022-12-07T10:52:56;99346.25;;;5.12;83.03
54592;BME280;40488;48.558;18.150;2022-12-07T10:55:40;99349.59;;;5.11;82.74
54592;BME280;40488;48.558;18.150;2022-12-07T10:58:27;99333.53;;;5.09;82.73
54592;BME280;40488;48.558;18.150;2022-12-07T11:01:07;99337.78;;;5.10;82.69
54592;BME280;40488;48.558;18.150;2022-12-07T11:03:56;99331.88;;;5.08;82.42
54592;BME280;40488;48.558;18.150;2022-12-07T11:06:34;99332.75;;;5.12;82.29
54592;BME280;40488;48.558;18.150;2022-12-07T11:09:37;99324.34;;;5.14;82.35
54592;BME280;40488;48.558;18.150;2022-12-07T11:12:43;99332.06;;;5.20;82.25
54592;BME280;40488;48.558;18.150;2022-12-07T11:15:21;99334.59;;;5.23;82.73
54592;BME280;40488;48.558;18.150;2022-12-07T11:17:58;99335.50;;;5.25;82.09
54592;BME280;40488;48.558;18.150;2022-12-07T11:20:41;99338.03;;;5.25;81.83
54592;BME280;40488;48.558;18.150;2022-12-07T11:23:18;99335.50;;;5.25;81.69
54592;BME280;40488;48.558;18.150;2022-12-07T11:25:54;99333.78;;;5.26;81.72
54592;BME280;40488;48.558;18.150;2022-12-07T11:28:34;99327.81;;;5.19;81.43
54592;BME280;40488;48.558;18.150;2022-12-07T11:31:14;99330.44;;;5.27;81.66
54592;BME280;40488;48.558;18.150;2022-12-07T11:34:15;99327.06;;;5.25;81.83
54592;BME280;40488;48.558;18.150;2022-12-07T11:36:51;99331.25;;;5.24;81.24
54592;BME280;40488;48.558;18.150;2022-12-07T11:39:26;99331.25;;;5.24;81.43
54592;BME280;40488;48.558;18.150;2022-12-07T11:42:03;99326.25;;;5.27;81.58
54592;BME280;40488;48.558;18.150;2022-12-07T11:44:39;99322.94;;;5.33;81.52
54592;BME280;40488;48.558;18.150;2022-12-07T11:47:18;99329.69;;;5.32;81.83
54592;BME280;40488;48.558;18.150;2022-12-07T11:49:54;99321.25;;;5.33;81.43
54592;BME280;40488;48.558;18.150;2022-12-07T11:52:32;99318.78;;;5.35;81.83
54592;BME280;40488;48.558;18.150;2022-12-07T11:55:16;99312.84;;;5.34;81.92
54592;BME280;40488;48.558;18.150;2022-12-07T11:57:52;99321.31;;;5.36;81.56
54592;BME280;40488;48.558;18.150;2022-12-07T12:00:25;99319.59;;;5.35;81.58
54592;BME280;40488;48.558;18.150;2022-12-07T12:02:59;99323.84;;;5.36;81.35
54592;BME280;40488;48.558;18.150;2022-12-07T12:05:30;99320.47;;;5.37;81.00
54592;BME280;40488;48.558;18.150;2022-12-07T12:08:05;99324.72;;;5.38;81.19
54592;BME280;40488;48.558;18.150;2022-12-07T12:11:08;99332.31;;;5.40;80.79
54592;BME280;40488;48.558;18.150;2022-12-07T12:14:02;99326.44;;;5.39;80.28
54592;BME280;40488;48.558;18.150;2022-12-07T12:17:17;99321.38;;;5.39;80.67
54592;BME280;40488;48.558;18.150;2022-12-07T12:20:01;99313.78;;;5.42;80.20
54592;BME280;40488;48.558;18.150;2022-12-07T12:22:36;99324.81;;;5.45;80.69
54592;BME280;40488;48.558;18.150;2022-12-07T12:25:07;99323.09;;;5.45;80.83
54592;BME280;40488;48.558;18.150;2022-12-07T12:27:46;99324.81;;;5.46;80.31
54592;BME280;40488;48.558;18.150;2022-12-07T12:30:31;99324.88;;;5.51;80.19
54592;BME280;40488;48.558;18.150;2022-12-07T12:33:04;99329.94;;;5.51;80.73
54592;BME280;40488;48.558;18.150;2022-12-07T12:35:36;99330.00;;;5.55;80.43
54592;BME280;40488;48.558;18.150;2022-12-07T12:40:55;99313.09;;;5.53;79.75
54592;BME280;40488;48.558;18.150;2022-12-07T12:49:38;99306.41;;;6.25;77.87
54592;BME280;40488;48.558;18.150;2022-12-07T12:55:11;99311.25;;;6.05;76.34
54592;BME280;40488;48.558;18.150;2022-12-07T12:57:40;99308.56;;;5.92;75.76
54592;BME280;40488;48.558;18.150;2022-12-07T13:00:17;99305.94;;;5.84;75.63
54592;BME280;40488;48.558;18.150;2022-12-07T13:02:49;99313.47;;;5.80;75.61
54592;BME280;40488;48.558;18.150;2022-12-07T13:05:23;99316.75;;;5.73;75.48
54592;BME280;40488;48.558;18.150;2022-12-07T13:07:58;99308.25;;;5.68;75.25
54592;BME280;40488;48.558;18.150;2022-12-07T13:10:40;99305.66;;;5.65;75.10
54592;BME280;40488;48.558;18.150;2022-12-07T13:18:49;99303.78;;;5.49;74.46
54592;BME280;40488;48.558;18.150;2022-12-07T13:24:13;99304.56;;;5.45;74.89
54592;BME280;40488;48.558;18.150;2022-12-07T13:26:43;99306.31;;;5.49;75.00
54592;BME280;40488;48.558;18.150;2022-12-07T13:29:15;99313.91;;;5.50;74.91
54592;BME280;40488;48.558;18.150;2022-12-07T13:31:46;99310.50;;;5.48;74.81
54592;BME280;40488;48.558;18.150;2022-12-07T13:34:31;99313.03;;;5.47;74.50
54592;BME280;40488;48.558;18.150;2022-12-07T13:37:04;99312.97;;;5.43;74.94
54592;BME280;40488;48.558;18.150;2022-12-07T13:39:45;99313.78;;;5.42;75.47
54592;BME280;40488;48.558;18.150;2022-12-07T13:42:22;99317.19;;;5.43;75.17
54592;BME280;40488;48.558;18.150;2022-12-07T13:44:53;99318.03;;;5.43;75.51
54592;BME280;40488;48.558;18.150;2022-12-07T13:47:31;99312.97;;;5.43;75.55
54592;BME280;40488;48.558;18.150;2022-12-07T13:50:23;99306.19;;;5.39;75.69
54592;BME280;40488;48.558;18.150;2022-12-07T13:52:56;99319.78;;;5.48;76.12
54592;BME280;40488;48.558;18.150;2022-12-07T13:55:25;99298.59;;;5.41;75.67
54592;BME280;40488;48.558;18.150;2022-12-07T13:57:57;99315.56;;;5.48;76.05